createdAt,value
2023-04-05T00:04:54.837Z,19.86
2023-04-05T00:09:57.987Z,19.80
2023-04-05T00:15:00.748Z,19.71
2023-04-05T00:20:07.803Z,19.66
2023-04-05T00:25:11.029Z,19.60
2023-04-05T00:30:20.564Z,19.57
2023-04-05T00:35:28.220Z,19.49
2023-04-05T00:40:31.093Z,19.47
2023-04-05T00:45:34.007Z,19.41
2023-04-05T00:50:39.217Z,19.39
2023-04-05T00:55:42.226Z,19.37
2023-04-05T01:00:45.079Z,19.33
2023-04-05T01:05:51.213Z,19.30
2023-04-05T01:10:56.667Z,19.28
2023-04-05T01:15:59.690Z,19.27
2023-04-05T01:21:10.678Z,19.23
2023-04-05T01:26:32.501Z,19.22
2023-04-05T01:31:38.682Z,19.21
2023-04-05T01:36:42.357Z,19.18
2023-04-05T01:41:45.202Z,19.17
2023-04-05T01:46:49.674Z,19.16
2023-04-05T01:51:52.848Z,19.13
2023-04-05T01:56:56.683Z,19.11
2023-04-05T02:02:01.365Z,19.11
2023-04-05T02:07:04.186Z,19.08
2023-04-05T02:12:07.159Z,19.09
2023-04-05T02:17:11.485Z,19.06
2023-04-05T02:22:14.895Z,19.06
2023-04-05T02:27:17.895Z,19.07
2023-04-05T02:32:22.585Z,19.04
2023-04-05T02:37:27.150Z,19.03
2023-04-05T02:42:30.081Z,19.03
2023-04-05T02:47:34.255Z,19.02
2023-04-05T02:52:38.536Z,19.00
2023-04-05T02:57:42.402Z,18.98
2023-04-05T03:02:59.814Z,18.99
2023-04-05T03:08:02.799Z,18.96
2023-04-05T03:13:08.825Z,18.95
2023-04-05T03:18:13.177Z,18.94
2023-04-05T03:23:18.107Z,18.93
2023-04-05T03:28:24.117Z,18.94
2023-04-05T03:33:30.879Z,18.92
2023-04-05T03:38:34.167Z,18.89
2023-04-05T03:43:45.653Z,18.91
2023-04-05T03:48:49.893Z,18.89
2023-04-05T03:53:52.732Z,18.87
2023-04-05T03:58:56.597Z,18.90
2023-04-05T04:04:05.360Z,18.87
2023-04-05T04:09:09.129Z,18.89
2023-04-05T04:14:11.927Z,18.84
2023-04-05T04:19:45.218Z,18.84
2023-04-05T04:25:02.667Z,18.83
2023-04-05T04:30:10.790Z,18.84
2023-04-05T04:35:34.900Z,18.83
2023-04-05T04:41:07.657Z,18.82
2023-04-05T04:46:43.288Z,18.79
2023-04-05T04:52:02.402Z,18.79
2023-04-05T04:57:05.232Z,18.78
2023-04-05T05:02:08.349Z,18.76
2023-04-05T05:07:12.779Z,18.82
2023-04-05T05:12:15.908Z,18.76
2023-04-05T05:17:18.753Z,18.76
2023-04-05T05:22:22.961Z,18.75
2023-04-05T05:27:25.924Z,18.76
2023-04-05T05:32:28.851Z,18.76
2023-04-05T05:37:33.440Z,18.74
2023-04-05T05:42:36.512Z,18.75
2023-04-05T05:47:39.290Z,18.74
2023-04-05T05:52:43.459Z,18.75
2023-04-05T05:57:46.224Z,18.75
2023-04-05T06:02:49.100Z,18.72
2023-04-05T06:07:53.179Z,18.78
2023-04-05T06:12:56.016Z,18.80
2023-04-05T06:17:58.805Z,18.84
2023-04-05T06:23:03.136Z,18.86
2023-04-05T06:28:06.265Z,18.85
2023-04-05T06:33:09.027Z,18.87
2023-04-05T06:38:13.148Z,18.85
2023-04-05T06:43:15.996Z,18.87
2023-04-05T06:48:18.970Z,18.87
2023-04-05T06:53:23.280Z,18.89
2023-04-05T06:58:27.332Z,18.90
2023-04-05T07:03:30.911Z,18.91
2023-04-05T07:08:35.201Z,16.77
2023-04-05T07:13:37.973Z,16.08
2023-04-05T07:18:40.893Z,17.08
2023-04-05T07:23:45.585Z,17.78
2023-04-05T07:28:48.440Z,18.33
2023-04-05T07:33:51.217Z,18.65
2023-04-05T07:38:56.980Z,18.89
2023-04-05T07:43:59.919Z,19.10
2023-04-05T07:49:02.701Z,19.21
2023-04-05T07:54:06.971Z,19.26
2023-04-05T07:59:09.771Z,19.30
2023-04-05T08:04:12.704Z,19.32
2023-04-05T08:09:17.321Z,19.34
2023-04-05T08:14:20.161Z,19.38
2023-04-05T08:19:22.962Z,19.44
2023-04-05T08:24:27.079Z,19.44
2023-04-05T08:29:29.878Z,19.46
2023-04-05T08:34:32.651Z,19.46
2023-04-05T08:39:37.466Z,19.35
2023-04-05T08:44:40.382Z,19.30
2023-04-05T08:49:44.147Z,19.30
2023-04-05T08:54:50.722Z,19.28
2023-04-05T08:59:53.737Z,19.26
2023-04-05T09:04:56.690Z,19.25
2023-04-05T09:10:01.105Z,19.24
2023-04-05T09:15:04.171Z,19.23
2023-04-05T09:20:07.921Z,19.24
2023-04-05T09:25:12.324Z,19.24
2023-04-05T09:30:22.256Z,19.27
2023-04-05T09:35:25.777Z,19.26
2023-04-05T09:40:43.579Z,19.25
2023-04-05T09:45:46.390Z,19.27
2023-04-05T09:50:49.674Z,19.26
2023-04-05T09:55:53.754Z,19.26
2023-04-05T10:01:06.689Z,19.25
2023-04-05T10:06:18.976Z,19.22
2023-04-05T10:11:23.196Z,19.21
2023-04-05T10:16:25.990Z,19.22
2023-04-05T10:21:30.980Z,19.24
2023-04-05T10:26:38.375Z,19.24
2023-04-05T10:31:46.984Z,19.27
2023-04-05T10:36:51.475Z,19.23
2023-04-05T10:41:57.859Z,19.26
2023-04-05T10:47:01.169Z,19.27
2023-04-05T10:52:04.316Z,19.28
2023-04-05T10:57:10.276Z,19.32
2023-04-05T11:02:13.672Z,18.76
2023-04-05T11:07:17.000Z,17.87
2023-04-05T11:12:21.485Z,18.34
2023-04-05T11:17:28.599Z,18.55
2023-04-05T11:22:31.756Z,18.78
2023-04-05T11:27:37.420Z,18.99
2023-04-05T11:32:41.132Z,19.08
2023-04-05T11:37:57.123Z,19.21
2023-04-05T11:43:05.961Z,19.30
2023-04-05T11:48:09.830Z,19.37
2023-04-05T11:53:12.960Z,19.41
2023-04-05T11:58:18.159Z,19.49
2023-04-05T12:03:21.182Z,19.53
2023-04-05T12:08:24.118Z,19.58
2023-04-05T12:13:30.177Z,19.64
2023-04-05T12:18:33.775Z,19.64
2023-04-05T12:23:37.237Z,19.65
2023-04-05T12:28:54.111Z,19.70
2023-04-05T12:33:59.317Z,19.73
2023-04-05T12:39:02.691Z,19.75
2023-04-05T12:44:07.798Z,19.78
2023-04-05T12:49:12.382Z,19.81
2023-04-05T12:54:15.352Z,19.84
2023-04-05T12:59:19.716Z,19.86
2023-04-05T13:04:23.169Z,19.88
2023-04-05T13:09:26.247Z,19.91
2023-04-05T13:14:30.519Z,20.17
2023-04-05T13:19:33.333Z,20.46
2023-04-05T13:24:36.144Z,20.47
2023-04-05T13:29:40.578Z,20.54
2023-04-05T13:34:43.472Z,20.60
2023-04-05T13:39:46.425Z,20.67
2023-04-05T13:44:50.565Z,20.74
2023-04-05T13:49:53.350Z,20.78
2023-04-05T13:55:02.998Z,20.82
2023-04-05T14:00:09.887Z,20.87
2023-04-05T14:05:17.108Z,20.85
2023-04-05T14:10:21.677Z,20.94
2023-04-05T14:15:27.603Z,20.98
2023-04-05T14:20:31.210Z,21.01
2023-04-05T14:25:34.448Z,21.11
2023-04-05T14:30:38.997Z,21.17
2023-04-05T14:35:42.034Z,21.23
2023-04-05T14:40:45.179Z,21.18
2023-04-05T14:45:49.472Z,21.19
2023-04-05T14:50:52.856Z,21.15
2023-04-05T14:55:55.919Z,21.07
2023-04-05T15:01:00.286Z,21.04
2023-04-05T15:06:04.340Z,21.03
2023-04-05T15:11:07.738Z,20.98
2023-04-05T15:16:12.026Z,20.96
2023-04-05T15:21:15.178Z,20.81
2023-04-05T15:26:18.270Z,20.73
2023-04-05T15:31:22.789Z,20.60
2023-04-05T15:36:28.202Z,20.58
2023-04-05T15:41:31.367Z,20.63
2023-04-05T15:46:36.035Z,20.66
2023-04-05T15:51:39.250Z,20.57
2023-04-05T15:56:42.186Z,20.65
2023-04-05T16:01:46.507Z,20.60
2023-04-05T16:06:49.560Z,20.53
2023-04-05T16:11:52.472Z,20.52
2023-04-05T16:16:56.857Z,20.50
2023-04-05T16:22:03.023Z,20.51
2023-04-05T16:27:06.216Z,20.44
2023-04-05T16:32:10.864Z,20.36
2023-04-05T16:37:13.796Z,20.36
2023-04-05T16:42:16.835Z,20.40
2023-04-05T16:47:21.270Z,20.39
2023-04-05T16:52:24.236Z,20.38
2023-04-05T16:57:27.231Z,20.42
2023-04-05T17:02:31.804Z,20.40
2023-04-05T17:07:34.747Z,20.43
2023-04-05T17:12:40.558Z,20.43
2023-04-05T17:17:44.797Z,20.44
2023-04-05T17:22:47.792Z,20.43
2023-04-05T17:27:50.706Z,20.46
2023-04-05T17:32:54.968Z,20.48
2023-04-05T17:37:57.901Z,20.48
2023-04-05T17:43:00.919Z,20.49
2023-04-05T17:48:05.395Z,20.48
2023-04-05T17:53:08.466Z,20.51
2023-04-05T17:58:11.469Z,20.50
2023-04-05T18:03:17.904Z,20.50
2023-04-05T18:08:21.212Z,20.54
2023-04-05T18:14:03.845Z,21.16
2023-04-05T18:19:07.426Z,20.70
2023-04-05T18:24:11.439Z,20.68
2023-04-05T18:29:15.689Z,20.69
2023-04-05T18:34:18.584Z,20.61
2023-04-05T18:39:21.783Z,20.65
2023-04-05T18:44:26.087Z,20.68
2023-04-05T18:49:29.046Z,20.73
2023-04-05T18:54:32.063Z,20.75
2023-04-05T18:59:36.509Z,20.76
2023-04-05T19:04:39.534Z,20.73
2023-04-05T19:09:42.932Z,20.75
2023-04-05T19:14:47.301Z,20.79
2023-04-05T19:19:50.278Z,20.85
2023-04-05T19:24:53.213Z,20.90
2023-04-05T19:29:57.805Z,20.94
2023-04-05T19:35:00.716Z,20.95
2023-04-05T19:40:05.385Z,20.96
2023-04-05T19:45:10.949Z,21.03
2023-04-05T19:50:38.277Z,20.98
2023-04-05T19:55:41.702Z,21.03
2023-04-05T20:00:52.296Z,21.06
2023-04-05T20:05:59.704Z,21.15
2023-04-05T20:11:02.654Z,21.14
2023-04-05T20:16:06.913Z,21.12
2023-04-05T20:21:09.880Z,21.13
2023-04-05T20:26:16.499Z,21.13
2023-04-05T20:31:22.105Z,21.14
2023-04-05T20:36:28.433Z,21.09
2023-04-05T20:41:31.675Z,21.11
2023-04-05T20:46:36.196Z,21.15
2023-04-05T20:51:41.882Z,21.17
2023-04-05T20:56:46.037Z,21.17
2023-04-05T21:01:50.607Z,21.15
2023-04-05T21:06:53.511Z,21.15
2023-04-05T21:11:56.491Z,21.14
2023-04-05T21:17:00.866Z,21.10
2023-04-05T21:22:03.781Z,21.06
2023-04-05T21:27:06.682Z,21.00
2023-04-05T21:32:10.950Z,21.02
2023-04-05T21:37:13.837Z,20.95
2023-04-05T21:42:16.739Z,20.95
2023-04-05T21:47:20.992Z,20.94
2023-04-05T21:52:24.026Z,20.93
2023-04-05T21:57:26.914Z,20.93
2023-04-05T22:02:31.278Z,20.93
2023-04-05T22:07:34.257Z,20.88
2023-04-05T22:12:37.290Z,20.87
2023-04-05T22:17:41.487Z,20.88
2023-04-05T22:22:44.390Z,20.86
2023-04-05T22:27:47.346Z,20.84
2023-04-05T22:32:51.826Z,20.78
2023-04-05T22:37:54.788Z,20.76
2023-04-05T22:42:57.791Z,20.74
2023-04-05T22:48:02.105Z,20.70
2023-04-05T22:53:07.935Z,20.68
2023-04-05T22:58:10.934Z,20.69
2023-04-05T23:03:15.361Z,20.68
2023-04-05T23:08:18.327Z,20.65
2023-04-05T23:13:21.569Z,20.64
2023-04-05T23:18:25.818Z,20.60
2023-04-05T23:23:28.699Z,20.58
2023-04-05T23:28:31.790Z,20.57
2023-04-05T23:33:36.237Z,20.51
2023-04-05T23:38:39.150Z,20.45
2023-04-05T23:43:42.046Z,20.42
2023-04-05T23:48:46.421Z,20.38
2023-04-05T23:53:49.367Z,20.32
2023-04-05T23:58:52.340Z,20.28
